Time;durP1;ratioP1;P1;durP2;ratioP2;P2;SDS_P1;SDS_P2;PMS_P1;PMS_P2;Temp;Humidity;BMP_temperature;BMP_pressure;BME280_temperature;BME280_humidity;BME280_pressure;Samples;Min_cycle;Max_cycle;Signal;HPM_P1;HPM_P2
2023/07/07 00:00:30;;;;;;;20.88;10.30;;;25.40;95.30;;;;;;5051037;28;20465;-79
2023/07/07 00:03:34;;;;;;;16.92;10.20;;;25.30;95.40;;;;;;5051416;28;20040;-79
2023/07/07 00:06:39;;;;;;;16.60;10.15;;;25.30;95.50;;;;;;5051305;28;20048;-79
2023/07/07 00:09:43;;;;;;;21.23;10.05;;;25.20;95.50;;;;;;5050953;28;20036;-76
2023/07/07 00:12:47;;;;;;;15.98;9.25;;;25.20;95.40;;;;;;5051399;28;20055;-79
2023/07/07 00:15:50;;;;;;;16.15;9.98;;;25.10;95.30;;;;;;5050127;28;20052;-79
2023/07/07 00:18:56;;;;;;;20.33;10.48;;;25.00;95.60;;;;;;5049916;28;20068;-79
2023/07/07 00:22:06;;;;;;;17.45;9.05;;;25.00;95.60;;;;;;5051466;28;20056;-79
2023/07/07 00:25:09;;;;;;;18.05;9.40;;;25.00;95.50;;;;;;5051078;28;20044;-79
2023/07/07 00:28:13;;;;;;;18.58;9.30;;;25.10;95.40;;;;;;5050968;28;20539;-79
2023/07/07 00:31:20;;;;;;;19.50;9.48;;;25.10;95.20;;;;;;5050788;28;20503;-79
2023/07/07 00:34:26;;;;;;;18.00;8.85;;;25.00;95.10;;;;;;5050945;28;20047;-79
2023/07/07 00:37:30;;;;;;;16.67;8.32;;;24.90;95.20;;;;;;5050741;28;20040;-79
2023/07/07 00:40:34;;;;;;;17.05;8.27;;;24.70;94.90;;;;;;5050161;28;20040;-79
2023/07/07 00:43:38;;;;;;;12.68;8.18;;;24.70;94.80;;;;;;5050954;28;20039;-79
2023/07/07 00:46:42;;;;;;;16.50;8.95;;;24.80;94.50;;;;;;5050631;28;20400;-79
2023/07/07 00:49:48;;;;;;;14.63;8.20;;;24.80;94.60;;;;;;5050000;28;20531;-79
2023/07/07 00:52:52;;;;;;;16.60;8.00;;;24.80;94.80;;;;;;5050705;28;20056;-79
2023/07/07 00:56:00;;;;;;;14.48;7.45;;;24.70;94.50;;;;;;5050549;28;20076;-79
2023/07/07 00:59:09;;;;;;;17.58;7.88;;;24.70;94.30;;;;;;5050792;28;20048;-79
2023/07/07 01:02:24;;;;;;;13.75;7.60;;;24.60;94.00;;;;;;5049830;28;20401;-76
2023/07/07 01:05:31;;;;;;;15.73;7.43;;;24.60;93.90;;;;;;5053573;28;20047;-79
2023/07/07 01:08:38;;;;;;;11.07;7.78;;;24.60;93.80;;;;;;5053448;28;20504;-78
2023/07/07 01:11:44;;;;;;;14.32;7.47;;;24.50;93.90;;;;;;5054487;28;20047;-77
2023/07/07 01:14:51;;;;;;;15.45;7.22;;;24.40;94.10;;;;;;5054022;28;20060;-77
2023/07/07 01:18:14;;;;;;;14.65;7.55;;;24.30;94.10;;;;;;5053538;28;20040;-77
2023/07/07 01:21:49;;;;;;;14.30;8.40;;;24.20;94.20;;;;;;5054112;28;20056;-77
2023/07/07 01:25:29;;;;;;;11.75;7.05;;;24.30;93.90;;;;;;5053292;28;20056;-78
2023/07/07 01:28:55;;;;;;;14.82;7.35;;;24.30;94.00;;;;;;5054077;28;20044;-77
2023/07/07 01:32:09;;;;;;;12.20;6.97;;;24.30;93.70;;;;;;5053865;28;20535;-78
2023/07/07 01:35:18;;;;;;;13.77;7.20;;;24.30;93.70;;;;;;5042458;28;20233;-78
2023/07/07 01:38:28;;;;;;;12.25;6.93;;;24.10;93.80;;;;;;5053010;28;20405;-78
2023/07/07 01:41:57;;;;;;;12.32;7.00;;;24.10;94.10;;;;;;5053819;28;20071;-77
2023/07/07 01:45:05;;;;;;;12.35;7.35;;;24.00;94.00;;;;;;5053220;28;20059;-77
2023/07/07 01:48:32;;;;;;;13.02;7.18;;;23.90;94.10;;;;;;5041656;28;20068;-78
2023/07/07 01:52:03;;;;;;;12.73;6.85;;;23.90;94.20;;;;;;5053666;28;20044;-77
2023/07/07 01:55:19;;;;;;;16.08;7.55;;;24.00;94.00;;;;;;5053425;28;20052;-77
2023/07/07 01:58:26;;;;;;;13.07;6.90;;;23.90;93.90;;;;;;5053577;28;20063;-78
2023/07/07 02:01:31;;;;;;;14.35;7.13;;;23.80;94.30;;;;;;5041215;28;20390;-78
2023/07/07 02:04:35;;;;;;;14.30;7.05;;;23.90;94.00;;;;;;5053305;28;20052;-78
2023/07/07 02:07:39;;;;;;;10.45;6.95;;;23.90;94.00;;;;;;5053526;28;20417;-78
2023/07/07 02:10:43;;;;;;;14.88;7.30;;;23.90;93.90;;;;;;5053272;28;20044;-77
2023/07/07 02:13:47;;;;;;;13.25;6.65;;;24.00;93.80;;;;;;5051912;28;20047;-78
2023/07/07 02:16:51;;;;;;;11.10;6.40;;;23.90;93.50;;;;;;5052263;28;20401;-78
2023/07/07 02:19:59;;;;;;;14.25;6.70;;;24.00;93.30;;;;;;5052978;28;20504;-78
2023/07/07 02:23:03;;;;;;;15.52;6.95;;;23.90;93.10;;;;;;5052343;28;20197;-78
2023/07/07 02:26:07;;;;;;;9.82;5.60;;;23.90;93.00;;;;;;5053031;28;20508;-77
2023/07/07 02:29:12;;;;;;;10.75;5.95;;;23.90;93.00;;;;;;5053124;28;20044;-78
2023/07/07 02:32:16;;;;;;;11.20;5.97;;;23.90;93.20;;;;;;5052890;28;20043;-78
2023/07/07 02:35:20;;;;;;;18.02;6.65;;;23.90;93.40;;;;;;5052295;28;20060;-78
2023/07/07 02:38:24;;;;;;;19.60;6.65;;;23.90;93.10;;;;;;5052783;28;20044;-77
2023/07/07 02:41:29;;;;;;;12.95;6.53;;;23.90;93.10;;;;;;5051756;28;20060;-78
2023/07/07 02:44:34;;;;;;;13.40;7.00;;;23.90;93.30;;;;;;5052470;28;20048;-78
2023/07/07 02:47:39;;;;;;;13.70;6.47;;;23.80;93.80;;;;;;5052608;28;20389;-78
2023/07/07 02:50:43;;;;;;;11.93;6.75;;;23.70;94.10;;;;;;5051348;28;20039;-78
2023/07/07 02:53:48;;;;;;;12.65;7.03;;;23.70;94.40;;;;;;5039865;28;20036;-78
2023/07/07 02:56:53;;;;;;;12.75;6.22;;;23.70;94.50;;;;;;5052446;28;20539;-78
2023/07/07 02:59:57;;;;;;;11.18;6.57;;;23.70;94.20;;;;;;5052192;28;20044;-78
2023/07/07 03:03:01;;;;;;;14.65;6.95;;;23.80;94.10;;;;;;5039792;28;20040;-78
2023/07/07 03:06:18;;;;;;;11.77;6.50;;;23.70;94.50;;;;;;5051073;28;20052;-78
2023/07/07 03:09:22;;;;;;;13.82;7.03;;;23.70;94.70;;;;;;5051064;28;20051;-78
2023/07/07 03:12:26;;;;;;;15.32;6.75;;;23.60;94.90;;;;;;5051037;28;20066;-78
2023/07/07 03:15:39;;;;;;;14.32;6.50;;;23.60;95.30;;;;;;5051020;28;20127;-78
2023/07/07 03:18:45;;;;;;;13.40;6.20;;;23.60;95.40;;;;;;5051904;28;20048;-78
2023/07/07 03:21:52;;;;;;;16.50;6.38;;;23.70;95.40;;;;;;5039834;28;20060;-78
2023/07/07 03:25:03;;;;;;;12.02;6.60;;;23.70;95.00;;;;;;5050520;28;20060;-78
2023/07/07 03:28:19;;;;;;;15.25;7.63;;;23.70;94.80;;;;;;5050936;28;20036;-79
2023/07/07 03:31:27;;;;;;;15.18;6.95;;;23.80;94.70;;;;;;5052174;28;20040;-78
2023/07/07 03:34:38;;;;;;;9.13;6.40;;;23.80;94.70;;;;;;5051133;28;20048;-78
2023/07/07 03:37:47;;;;;;;14.40;7.00;;;23.80;94.60;;;;;;5052752;28;20044;-78
2023/07/07 03:40:51;;;;;;;15.75;6.85;;;23.80;94.60;;;;;;5051059;28;20040;-78
2023/07/07 03:43:58;;;;;;;14.73;7.03;;;23.80;94.70;;;;;;5050857;28;20040;-78
2023/07/07 03:47:03;;;;;;;13.10;6.97;;;23.70;94.80;;;;;;5050890;28;20036;-78
2023/07/07 03:50:08;;;;;;;15.68;7.07;;;23.80;94.60;;;;;;5039666;28;20048;-78
2023/07/07 03:53:12;;;;;;;16.40;6.72;;;23.80;94.40;;;;;;5050962;28;20048;-77
2023/07/07 03:56:20;;;;;;;13.40;7.28;;;23.80;94.40;;;;;;5050506;28;20056;-78
2023/07/07 03:59:26;;;;;;;16.73;7.07;;;23.80;94.40;;;;;;5039174;28;20044;-78
2023/07/07 04:02:31;;;;;;;18.55;6.45;;;23.70;94.50;;;;;;5051218;28;20048;-77
2023/07/07 04:05:46;;;;;;;15.38;6.70;;;23.70;94.50;;;;;;5051861;28;20044;-77
2023/07/07 04:08:50;;;;;;;13.88;6.70;;;23.70;94.50;;;;;;5052404;28;20508;-78
2023/07/07 04:11:54;;;;;;;12.18;6.88;;;23.70;94.70;;;;;;5050609;28;20040;-77
2023/07/07 04:14:59;;;;;;;14.27;6.90;;;23.70;94.70;;;;;;5050605;28;20048;-78
2023/07/07 04:18:02;;;;;;;14.88;6.82;;;23.70;94.70;;;;;;5050200;28;20556;-77
2023/07/07 04:21:10;;;;;;;14.10;7.13;;;23.70;94.50;;;;;;5049944;28;20048;-78
2023/07/07 04:24:20;;;;;;;12.20;6.85;;;23.70;94.40;;;;;;5050930;28;20052;-78
2023/07/07 04:27:24;;;;;;;21.08;7.95;;;23.80;94.30;;;;;;5050981;28;20040;-78
2023/07/07 04:30:28;;;;;;;15.93;6.95;;;23.80;94.30;;;;;;5051097;28;20684;-79
2023/07/07 04:33:33;;;;;;;12.10;6.60;;;23.80;94.20;;;;;;5051098;28;20044;-77
2023/07/07 04:36:38;;;;;;;14.52;7.22;;;23.80;94.30;;;;;;5051037;28;20119;-77
2023/07/07 04:39:42;;;;;;;14.95;7.60;;;23.90;94.10;;;;;;5055722;28;20496;-78
2023/07/07 04:42:48;;;;;;;17.77;7.47;;;24.00;94.00;;;;;;5055867;28;20063;-79
2023/07/07 04:45:52;;;;;;;10.43;6.68;;;24.20;94.20;;;;;;5055302;28;20401;-79
2023/07/07 04:49:06;;;;;;;18.42;7.43;;;24.60;93.50;;;;;;5056172;28;20051;-77
2023/07/07 04:52:10;;;;;;;15.30;7.30;;;24.80;93.30;;;;;;5054948;28;20055;-77
2023/07/07 04:55:16;;;;;;;16.90;7.97;;;24.90;93.40;;;;;;5056219;28;20073;-77
2023/07/07 04:58:20;;;;;;;16.33;7.90;;;25.00;93.00;;;;;;5055138;28;20044;-78
2023/07/07 05:01:27;;;;;;;14.63;7.85;;;25.10;93.20;;;;;;5054373;28;20048;-78
2023/07/07 05:04:31;;;;;;;14.32;7.85;;;25.10;93.50;;;;;;5055218;28;20047;-78
2023/07/07 05:07:34;;;;;;;15.82;7.95;;;25.20;93.30;;;;;;5054468;28;20056;-78
2023/07/07 05:10:39;;;;;;;18.55;9.02;;;25.30;93.60;;;;;;5054808;28;20035;-77
2023/07/07 05:13:46;;;;;;;22.42;10.15;;;25.50;93.70;;;;;;5054936;28;20036;-77
2023/07/07 05:16:52;;;;;;;24.42;10.48;;;25.70;93.70;;;;;;5055024;28;20060;-77
2023/07/07 05:19:57;;;;;;;21.15;10.23;;;25.80;93.30;;;;;;5054761;28;20048;-80
2023/07/07 05:23:02;;;;;;;21.13;11.07;;;25.90;93.30;;;;;;5054258;28;20048;-72
2023/07/07 05:26:07;;;;;;;24.10;11.00;;;25.90;93.30;;;;;;5053579;28;20044;-73
2023/07/07 05:29:11;;;;;;;19.58;11.07;;;26.10;93.30;;;;;;5053436;28;20056;-73
2023/07/07 05:32:15;;;;;;;22.25;11.02;;;26.40;93.20;;;;;;5054284;28;20047;-73
2023/07/07 05:35:19;;;;;;;21.90;10.63;;;26.60;92.80;;;;;;5054099;28;20206;-73
2023/07/07 05:38:25;;;;;;;20.90;11.40;;;26.90;92.50;;;;;;5054369;28;20048;-72
2023/07/07 05:41:29;;;;;;;20.40;9.35;;;27.20;92.20;;;;;;5054448;28;20040;-72
2023/07/07 05:44:34;;;;;;;18.23;9.27;;;27.20;92.10;;;;;;5054144;28;20051;-73
2023/07/07 05:47:38;;;;;;;28.20;8.90;;;27.30;91.90;;;;;;5054104;28;20385;-73
2023/07/07 05:50:45;;;;;;;31.30;8.20;;;27.60;91.60;;;;;;5054750;28;20056;-72
2023/07/07 05:53:49;;;;;;;13.88;7.63;;;27.70;91.50;;;;;;5053153;28;20040;-73
2023/07/07 05:56:59;;;;;;;14.93;7.72;;;27.80;91.40;;;;;;5053992;28;20060;-73
2023/07/07 06:00:04;;;;;;;19.88;7.53;;;28.00;91.20;;;;;;5054755;28;20056;-73
2023/07/07 06:03:16;;;;;;;21.48;7.45;;;28.10;91.20;;;;;;5053753;28;20056;-72
2023/07/07 06:06:20;;;;;;;15.25;7.03;;;28.30;91.30;;;;;;5053261;28;20063;-72
2023/07/07 06:09:24;;;;;;;14.02;6.20;;;28.50;91.10;;;;;;5053961;28;20048;-72
2023/07/07 06:12:28;;;;;;;12.85;6.65;;;28.70;90.50;;;;;;5053481;28;20385;-72
2023/07/07 06:15:32;;;;;;;14.40;5.63;;;28.90;90.50;;;;;;5052245;28;20500;-70
2023/07/07 06:18:36;;;;;;;15.77;5.63;;;29.20;90.00;;;;;;5053157;28;20044;-69
2023/07/07 06:21:40;;;;;;;11.85;6.30;;;29.40;90.00;;;;;;5052937;28;20059;-70
2023/07/07 06:24:44;;;;;;;15.90;6.88;;;29.30;90.10;;;;;;5052061;28;20040;-70
2023/07/07 06:27:48;;;;;;;17.77;7.32;;;29.20;90.40;;;;;;5052712;28;20048;-71
2023/07/07 06:30:52;;;;;;;12.32;6.90;;;29.30;90.60;;;;;;5052187;28;20064;-74
2023/07/07 06:33:57;;;;;;;18.42;7.80;;;29.50;90.20;;;;;;5052413;28;20040;-72
2023/07/07 06:37:01;;;;;;;19.17;8.88;;;29.90;90.20;;;;;;5052360;28;20043;-72
2023/07/07 06:40:05;;;;;;;17.23;7.95;;;30.10;88.20;;;;;;5052148;28;20048;-70
2023/07/07 06:43:10;;;;;;;15.88;7.25;;;30.30;87.80;;;;;;5052314;28;20536;-68
2023/07/07 06:46:17;;;;;;;19.75;7.68;;;30.50;86.80;;;;;;5051881;28;20044;-74
2023/07/07 06:49:21;;;;;;;19.95;8.80;;;30.40;86.80;;;;;;5052710;28;20051;-72
2023/07/07 06:52:26;;;;;;;20.25;7.85;;;30.40;86.70;;;;;;5051526;28;20393;-69
2023/07/07 06:55:30;;;;;;;14.15;6.60;;;30.80;86.30;;;;;;5051158;28;20511;-73
2023/07/07 06:58:34;;;;;;;14.85;7.10;;;32.00;82.20;;;;;;5051572;28;20396;-71
2023/07/07 07:01:39;;;;;;;14.70;6.57;;;32.90;80.90;;;;;;5051399;28;20500;-70
2023/07/07 07:04:44;;;;;;;19.00;5.82;;;33.70;78.70;;;;;;5052346;28;20056;-71
2023/07/07 07:07:48;;;;;;;15.55;6.38;;;34.30;77.90;;;;;;5051712;28;20036;-70
2023/07/07 07:10:52;;;;;;;13.35;6.88;;;34.80;76.80;;;;;;5051567;28;20048;-70
2023/07/07 07:13:56;;;;;;;13.70;6.10;;;34.30;76.70;;;;;;5051654;28;20044;-71
2023/07/07 07:17:00;;;;;;;14.02;5.65;;;33.40;78.90;;;;;;5051684;28;20056;-69
2023/07/07 07:20:06;;;;;;;15.55;6.03;;;32.90;79.60;;;;;;5051557;28;20060;-70
2023/07/07 07:23:10;;;;;;;13.68;5.68;;;32.40;80.00;;;;;;5051639;28;20072;-70
2023/07/07 07:26:14;;;;;;;11.07;5.50;;;32.30;81.00;;;;;;5050504;28;20051;-70
2023/07/07 07:29:18;;;;;;;11.60;5.03;;;32.30;79.50;;;;;;5051667;28;20404;-70
2023/07/07 07:32:23;;;;;;;15.20;6.68;;;32.40;79.30;;;;;;5051269;28;20662;-71
2023/07/07 07:35:28;;;;;;;17.88;5.63;;;32.60;78.70;;;;;;5050380;28;20052;-71
2023/07/07 07:38:33;;;;;;;12.20;5.15;;;32.60;76.90;;;;;;5050366;28;20047;-72
2023/07/07 07:41:37;;;;;;;11.40;4.53;;;32.50;76.40;;;;;;5051387;28;20064;-71
2023/07/07 07:44:41;;;;;;;10.60;5.47;;;32.50;77.40;;;;;;5051110;28;20051;-70
2023/07/07 07:47:46;;;;;;;16.30;5.68;;;32.60;77.30;;;;;;5051318;28;20044;-71
2023/07/07 07:50:49;;;;;;;16.48;5.70;;;32.70;77.60;;;;;;5051435;28;20047;-71
2023/07/07 07:53:53;;;;;;;16.80;5.78;;;32.80;78.00;;;;;;5051193;28;20492;-71
2023/07/07 07:56:58;;;;;;;12.25;5.15;;;32.70;76.60;;;;;;5051156;28;20052;-71
2023/07/07 08:00:05;;;;;;;13.57;4.63;;;32.40;77.80;;;;;;5051125;28;20048;-70
2023/07/07 08:03:16;;;;;;;9.23;4.90;;;32.60;75.60;;;;;;5050862;28;20052;-70
2023/07/07 08:06:21;;;;;;;10.95;4.50;;;32.90;76.70;;;;;;5049981;28;20405;-71
2023/07/07 08:09:25;;;;;;;10.25;4.70;;;32.60;77.10;;;;;;5050821;28;20063;-71
2023/07/07 08:12:30;;;;;;;12.02;5.40;;;32.80;76.80;;;;;;5050381;28;20039;-71
2023/07/07 08:15:33;;;;;;;9.27;4.50;;;32.80;76.30;;;;;;5051005;28;20108;-70
2023/07/07 08:18:38;;;;;;;14.15;5.03;;;32.60;75.30;;;;;;5050873;28;20061;-71
2023/07/07 08:21:42;;;;;;;7.35;4.35;;;32.70;75.00;;;;;;5049943;28;20067;-70
2023/07/07 08:24:50;;;;;;;13.65;4.57;;;32.80;75.00;;;;;;5050771;28;20044;-70
2023/07/07 08:27:55;;;;;;;9.93;4.15;;;32.90;75.00;;;;;;5051075;28;20052;-70
2023/07/07 08:30:58;;;;;;;11.98;4.00;;;33.10;75.00;;;;;;5050785;28;20048;-72
2023/07/07 08:34:03;;;;;;;18.10;4.75;;;33.40;74.60;;;;;;5050665;28;20043;-71
2023/07/07 08:37:07;;;;;;;14.52;4.72;;;33.70;74.20;;;;;;5050667;28;20060;-70
2023/07/07 08:40:18;;;;;;;16.33;4.38;;;34.00;74.20;;;;;;5050623;28;20059;-72
2023/07/07 08:43:27;;;;;;;12.73;4.68;;;34.10;73.20;;;;;;5050702;28;20404;-70
2023/07/07 08:46:43;;;;;;;11.55;4.50;;;34.10;72.70;;;;;;5050712;28;20044;-70
2023/07/07 08:49:50;;;;;;;13.98;4.60;;;34.00;72.60;;;;;;5050694;28;20048;-71
2023/07/07 08:53:13;;;;;;;8.43;4.15;;;34.00;71.80;;;;;;5050299;28;20040;-71
2023/07/07 08:56:18;;;;;;;14.88;4.32;;;33.70;71.00;;;;;;5050175;28;20064;-70
2023/07/07 08:59:36;;;;;;;10.38;3.90;;;33.40;71.70;;;;;;5050577;28;20044;-71
2023/07/07 09:02:45;;;;;;;18.52;5.05;;;33.50;72.00;;;;;;5050173;28;20051;-70
2023/07/07 09:06:17;;;;;;;6.05;3.95;;;33.40;70.50;;;;;;5050496;28;20397;-71
2023/07/07 09:09:27;;;;;;;6.70;4.13;;;33.00;71.10;;;;;;5050348;28;20048;-70
2023/07/07 09:12:59;;;;;;;8.55;4.07;;;32.70;71.90;;;;;;5050020;28;20067;-71
2023/07/07 09:16:22;;;;;;;12.52;4.93;;;32.60;72.50;;;;;;5050220;28;20055;-71
2023/07/07 09:19:31;;;;;;;10.23;4.82;;;32.50;72.70;;;;;;5050186;28;20063;-72
2023/07/07 09:22:44;;;;;;;9.65;4.68;;;32.60;72.40;;;;;;5050295;28;20194;-72
2023/07/07 09:25:57;;;;;;;12.52;5.03;;;32.80;72.30;;;;;;5053544;28;20044;-71
2023/07/07 09:29:13;;;;;;;7.28;4.38;;;33.10;72.20;;;;;;5053899;28;20071;-71
2023/07/07 09:32:21;;;;;;;6.55;4.20;;;33.40;71.80;;;;;;5053713;28;20040;-72
2023/07/07 09:35:38;;;;;;;7.60;4.30;;;33.60;71.40;;;;;;5053532;28;20515;-72
2023/07/07 09:38:56;;;;;;;20.50;5.05;;;33.80;71.40;;;;;;5053350;28;20048;-71
2023/07/07 09:42:14;;;;;;;10.32;3.97;;;33.90;71.20;;;;;;5053305;28;20036;-71
2023/07/07 09:46:02;;;;;;;11.13;4.85;;;34.00;71.70;;;;;;5052784;28;20048;-71
2023/07/07 09:49:35;;;;;;;11.60;4.63;;;34.10;71.20;;;;;;5050903;28;20136;-71
2023/07/07 09:52:46;;;;;;;20.00;4.93;;;34.10;69.80;;;;;;5040074;28;20044;-71
2023/07/07 09:55:51;;;;;;;6.78;4.35;;;34.10;69.70;;;;;;5053295;28;20048;-71
2023/07/07 09:59:06;;;;;;;8.90;4.68;;;34.10;69.60;;;;;;5053023;28;20143;-72
2023/07/07 10:02:23;;;;;;;11.13;4.80;;;34.10;69.20;;;;;;5052671;28;20420;-71
2023/07/07 10:05:34;;;;;;;7.47;4.60;;;34.10;70.20;;;;;;5053392;28;20048;-71
2023/07/07 10:08:38;;;;;;;14.18;5.78;;;34.20;69.70;;;;;;5053193;28;20039;-72
2023/07/07 10:11:44;;;;;;;12.43;5.20;;;34.10;69.20;;;;;;5053414;28;20052;-70
2023/07/07 10:14:49;;;;;;;13.60;5.45;;;34.10;69.70;;;;;;5053077;28;20048;-71
2023/07/07 10:18:05;;;;;;;12.52;4.97;;;33.90;68.80;;;;;;5053288;28;20044;-71
2023/07/07 10:21:10;;;;;;;10.07;4.70;;;33.70;69.60;;;;;;5051628;28;20040;-71
2023/07/07 10:24:15;;;;;;;12.00;4.93;;;33.60;70.20;;;;;;5052862;28;20067;-72
2023/07/07 10:27:22;;;;;;;9.93;5.25;;;33.70;70.20;;;;;;5052591;28;20040;-71
2023/07/07 10:30:26;;;;;;;11.50;4.78;;;33.70;69.80;;;;;;5052580;28;20040;-72
2023/07/07 10:33:30;;;;;;;14.38;5.28;;;33.80;70.40;;;;;;5052359;28;20040;-75
2023/07/07 10:36:37;;;;;;;8.73;5.03;;;33.70;69.70;;;;;;5052124;28;20401;-70
2023/07/07 10:39:42;;;;;;;12.93;5.22;;;33.70;70.20;;;;;;5052466;28;20060;-70
2023/07/07 10:42:51;;;;;;;8.27;4.65;;;33.60;70.50;;;;;;5051750;28;20048;-71
2023/07/07 10:45:55;;;;;;;9.07;4.47;;;33.60;70.80;;;;;;5051532;28;20040;-72
2023/07/07 10:49:00;;;;;;;12.80;6.60;;;33.60;70.70;;;;;;5052341;28;20039;-71
2023/07/07 10:52:19;;;;;;;37.50;9.13;;;33.60;69.90;;;;;;5051611;28;20047;-71
2023/07/07 10:55:26;;;;;;;8.55;4.88;;;33.60;69.80;;;;;;5040613;28;20642;-71
2023/07/07 10:58:36;;;;;;;13.55;5.28;;;33.60;68.90;;;;;;5051656;28;20051;-70
2023/07/07 11:02:19;;;;;;;15.23;5.13;;;33.50;69.30;;;;;;5051325;28;20044;-70
2023/07/07 11:05:41;;;;;;;8.40;4.68;;;33.50;68.70;;;;;;5051942;28;20044;-71
2023/07/07 11:08:51;;;;;;;12.57;5.60;;;33.40;68.50;;;;;;5051908;28;20091;-71
2023/07/07 11:12:25;;;;;;;7.63;4.70;;;33.40;69.50;;;;;;5052389;28;20384;-71
2023/07/07 11:16:02;;;;;;;14.43;5.18;;;33.40;70.10;;;;;;5051750;28;20040;-72
2023/07/07 11:19:26;;;;;;;10.07;4.82;;;33.40;69.40;;;;;;5051115;28;20060;-72
2023/07/07 11:23:14;;;;;;;8.88;4.60;;;33.40;69.40;;;;;;5051126;28;20055;-72
2023/07/07 11:26:24;;;;;;;9.15;5.25;;;33.40;69.60;;;;;;5051539;28;20036;-72
2023/07/07 11:29:39;;;;;;;10.77;5.45;;;33.30;68.30;;;;;;5051320;28;20432;-72
2023/07/07 11:33:08;;;;;;;23.88;6.45;;;33.40;68.30;;;;;;5051717;28;20052;-72
2023/07/07 11:36:34;;;;;;;8.55;4.97;;;33.30;68.40;;;;;;5051354;28;20048;-73
2023/07/07 11:40:16;;;;;;;9.05;4.97;;;33.30;68.70;;;;;;5051610;28;20048;-72
2023/07/07 11:43:28;;;;;;;8.93;4.95;;;33.40;68.50;;;;;;5051496;28;20056;-72
2023/07/07 11:46:56;;;;;;;7.63;4.55;;;33.40;67.60;;;;;;5050715;28;20044;-73
2023/07/07 11:50:00;;;;;;;10.85;4.72;;;33.40;67.30;;;;;;5051458;28;20040;-72
2023/07/07 11:53:18;;;;;;;16.75;4.85;;;33.40;65.20;;;;;;5051016;28;20044;-72
2023/07/07 11:56:54;;;;;;;8.13;5.47;;;33.40;63.20;;;;;;5051191;28;20056;-72
2023/07/07 12:00:09;;;;;;;16.45;6.05;;;33.40;63.90;;;;;;5051139;28;20397;-71
2023/07/07 12:03:44;;;;;;;10.48;5.00;;;33.40;64.40;;;;;;5050891;28;20048;-73
2023/07/07 12:07:02;;;;;;;10.50;5.72;;;33.40;66.40;;;;;;5051062;28;20048;-72
2023/07/07 12:10:17;;;;;;;20.58;7.05;;;33.40;68.40;;;;;;5051371;28;20044;-72
2023/07/07 12:13:38;;;;;;;10.35;5.75;;;33.50;77.40;;;;;;5050253;28;20048;-72
2023/07/07 12:16:46;;;;;;;18.63;6.28;;;33.40;79.10;;;;;;5051077;28;20134;-70
2023/07/07 12:19:54;;;;;;;17.10;7.10;;;33.40;80.10;;;;;;5050854;28;20131;-72
2023/07/07 12:23:01;;;;;;;17.60;6.78;;;33.40;80.40;;;;;;5051076;28;20060;-71
2023/07/07 12:26:22;;;;;;;12.48;5.93;;;33.30;80.60;;;;;;5050886;28;20048;-72
2023/07/07 12:29:27;;;;;;;12.90;6.80;;;33.20;80.90;;;;;;5051065;28;20405;-72
2023/07/07 12:32:32;;;;;;;13.80;5.88;;;33.20;81.60;;;;;;5050769;28;20048;-72
2023/07/07 12:35:47;;;;;;;20.70;7.25;;;33.20;82.50;;;;;;5051000;28;20048;-70
2023/07/07 12:38:54;;;;;;;15.30;7.10;;;33.10;81.70;;;;;;5051142;28;20052;-71
2023/07/07 12:41:59;;;;;;;21.80;8.75;;;33.10;82.40;;;;;;5051991;28;20043;-71
2023/07/07 12:45:15;;;;;;;36.22;8.20;;;33.00;82.10;;;;;;5050839;28;20047;-71
2023/07/07 12:48:21;;;;;;;21.02;7.07;;;33.00;82.10;;;;;;5050930;28;20044;-71
2023/07/07 12:51:31;;;;;;;15.02;6.80;;;33.70;80.70;;;;;;5050620;28;20039;-72
2023/07/07 12:54:36;;;;;;;14.33;6.60;;;34.80;79.20;;;;;;5049866;28;20415;-72
2023/07/07 12:58:16;;;;;;;16.88;6.78;;;35.50;76.20;;;;;;5050677;28;20051;-71
2023/07/07 13:01:32;;;;;;;13.05;5.90;;;35.70;74.40;;;;;;5054166;28;20048;-70
2023/07/07 13:04:46;;;;;;;18.92;6.90;;;35.80;74.00;;;;;;5054575;28;20048;-73
2023/07/07 13:08:01;;;;;;;22.17;7.18;;;36.10;73.90;;;;;;5054604;28;20059;-72
2023/07/07 13:11:10;;;;;;;26.35;7.75;;;35.90;73.60;;;;;;5054292;28;20393;-71
2023/07/07 13:14:39;;;;;;;14.32;6.07;;;36.10;73.90;;;;;;5054570;28;20048;-70
2023/07/07 13:17:43;;;;;;;15.68;6.28;;;36.30;73.50;;;;;;5054126;28;20051;-70
2023/07/07 13:20:49;;;;;;;14.18;6.93;;;36.30;72.20;;;;;;5053869;28;20052;-71
2023/07/07 13:23:54;;;;;;;18.50;6.88;;;36.00;73.30;;;;;;5053817;28;20044;-70
2023/07/07 13:26:58;;;;;;;13.15;6.75;;;35.90;74.20;;;;;;5053961;28;20044;-71
2023/07/07 13:30:20;;;;;;;12.90;6.47;;;35.60;73.90;;;;;;5054003;28;20039;-72
2023/07/07 13:33:30;;;;;;;15.15;6.88;;;35.20;75.10;;;;;;5053558;28;20043;-71
2023/07/07 13:36:34;;;;;;;14.00;7.78;;;34.80;75.80;;;;;;5053753;28;20060;-72
2023/07/07 13:39:41;;;;;;;14.65;7.15;;;34.40;76.50;;;;;;5053837;28;20507;-71
2023/07/07 13:42:51;;;;;;;15.32;7.20;;;34.10;77.00;;;;;;5053732;28;20052;-71
2023/07/07 13:46:01;;;;;;;18.45;8.05;;;33.90;77.60;;;;;;5053026;28;20488;-72
2023/07/07 13:49:13;;;;;;;13.25;7.78;;;33.70;78.30;;;;;;5053843;28;20044;-71
2023/07/07 13:52:21;;;;;;;9.07;6.18;;;33.60;78.50;;;;;;5051818;28;20499;-71
2023/07/07 13:55:34;;;;;;;14.77;7.38;;;33.50;78.70;;;;;;5052429;28;20040;-72
2023/07/07 13:58:47;;;;;;;16.52;7.15;;;33.40;79.20;;;;;;5052563;28;20056;-71
2023/07/07 14:01:54;;;;;;;11.52;6.80;;;33.40;79.00;;;;;;5053461;28;20396;-72
2023/07/07 14:05:06;;;;;;;17.35;6.97;;;33.40;79.00;;;;;;5052553;28;20048;-72
2023/07/07 14:08:17;;;;;;;13.18;6.60;;;33.20;78.70;;;;;;5052952;28;20048;-72
2023/07/07 14:11:24;;;;;;;8.13;6.30;;;33.20;78.90;;;;;;5052502;28;20059;-72
2023/07/07 14:14:28;;;;;;;19.52;6.63;;;33.20;79.40;;;;;;5051867;28;20040;-72
2023/07/07 14:17:37;;;;;;;10.75;6.03;;;33.20;79.90;;;;;;5052554;28;20056;-71
2023/07/07 14:20:45;;;;;;;8.48;6.32;;;33.10;80.00;;;;;;5051515;28;20052;-72
2023/07/07 14:23:50;;;;;;;22.48;7.68;;;33.10;80.10;;;;;;5052821;28;20404;-72
2023/07/07 14:26:55;;;;;;;10.30;6.30;;;33.00;79.90;;;;;;5051994;28;20060;-71
2023/07/07 14:29:59;;;;;;;17.65;6.90;;;33.10;80.10;;;;;;5052513;28;20040;-72
2023/07/07 14:33:03;;;;;;;15.48;7.88;;;33.00;80.00;;;;;;5052571;28;20461;-71
2023/07/07 14:36:22;;;;;;;9.75;6.45;;;33.10;80.00;;;;;;5052510;28;20048;-72
2023/07/07 14:39:32;;;;;;;12.65;6.85;;;33.10;80.20;;;;;;5052349;28;20044;-72
2023/07/07 14:42:50;;;;;;;12.98;7.93;;;33.10;80.00;;;;;;5051769;28;20044;-71
2023/07/07 14:45:59;;;;;;;13.60;8.82;;;33.10;80.30;;;;;;5052514;28;20052;-71
2023/07/07 14:49:19;;;;;;;9.48;6.22;;;33.10;80.00;;;;;;5052545;28;20036;-71
2023/07/07 14:52:43;;;;;;;8.50;6.25;;;33.10;78.80;;;;;;5052310;28;20048;-71
2023/07/07 14:55:52;;;;;;;10.07;6.47;;;33.10;79.10;;;;;;5052424;28;20048;-71
2023/07/07 14:59:03;;;;;;;18.20;14.32;;;33.10;78.80;;;;;;5052249;28;20056;-71
2023/07/07 15:02:25;;;;;;;;;;;33.10;80.00;;;;;;5052309;28;20044;-71
2023/07/07 15:05:30;;;;;;;12.85;6.80;;;33.10;80.30;;;;;;5051936;28;20391;-71
2023/07/07 15:08:36;;;;;;;11.00;5.95;;;33.10;80.30;;;;;;5052202;28;20397;-71
2023/07/07 15:11:41;;;;;;;9.15;6.22;;;33.10;80.20;;;;;;5051935;28;20059;-71
2023/07/07 15:14:44;;;;;;;11.88;6.32;;;33.00;80.30;;;;;;5052065;28;20052;-71
2023/07/07 15:17:48;;;;;;;12.57;6.80;;;33.00;80.60;;;;;;5051677;28;20056;-71
2023/07/07 15:20:52;;;;;;;21.40;8.05;;;33.00;80.50;;;;;;5051156;28;20048;-71
2023/07/07 15:23:57;;;;;;;21.88;8.02;;;33.00;80.70;;;;;;5051538;28;20040;-71
2023/07/07 15:27:01;;;;;;;11.40;6.63;;;33.00;81.20;;;;;;5051875;28;20048;-72
2023/07/07 15:30:14;;;;;;;14.73;6.53;;;33.00;80.40;;;;;;5051062;28;20048;-73
2023/07/07 15:33:18;;;;;;;23.02;7.05;;;32.90;80.50;;;;;;5049809;28;20643;-72
2023/07/07 15:36:24;;;;;;;15.45;6.72;;;33.40;80.00;;;;;;5050772;28;20465;-73
2023/07/07 15:39:28;;;;;;;18.08;7.13;;;34.70;77.80;;;;;;5051441;28;20512;-70
2023/07/07 15:42:32;;;;;;;11.18;6.45;;;35.60;76.10;;;;;;5051440;28;20048;-72
2023/07/07 15:45:36;;;;;;;14.95;6.68;;;36.60;74.50;;;;;;5050955;28;20052;-72
2023/07/07 15:48:40;;;;;;;13.98;6.68;;;36.80;74.10;;;;;;5051030;28;20048;-71
2023/07/07 15:51:46;;;;;;;24.10;7.32;;;36.60;73.50;;;;;;5050967;28;20051;-72
2023/07/07 15:54:50;;;;;;;21.85;7.47;;;36.50;73.80;;;;;;5051170;28;20048;-72
2023/07/07 15:57:53;;;;;;;19.67;6.30;;;36.80;73.50;;;;;;5050845;28;20059;-73
2023/07/07 16:00:58;;;;;;;13.23;5.45;;;37.20;72.50;;;;;;5050246;28;20404;-72
2023/07/07 16:04:02;;;;;;;12.40;5.78;;;37.30;72.20;;;;;;5050847;28;20051;-72
2023/07/07 16:07:10;;;;;;;12.77;6.25;;;37.30;72.10;;;;;;5050473;28;20142;-70
2023/07/07 16:10:15;;;;;;;13.88;5.70;;;37.10;71.70;;;;;;5051011;28;20385;-70
2023/07/07 16:13:19;;;;;;;15.32;5.53;;;37.00;71.60;;;;;;5050760;28;20044;-70